UKBB/KBP METAR and TAF weather

Enter ICAO airport designator
Station Type Date Time Source
UKBB METAR 2021/09/24 07:00 UTC NOAA

UKBB 240700Z 21008MPS 7000 -SHRA SCT007 BKN012CB 09/09 Q1000 R88/290050 TEMPO 22010G16MPS


Station Type Date Time Source
UKBB Decoded METAR 2021/09/24 07:00 UTC NOAA

Boryspil, Ukraine (UKBB) 50-20N 030-58E 122M
Sep 24, 2021 - 03:00 AM EDT / 2021.09.24 0700 UTC
Wind: from the SSW (210 degrees) at 18 MPH (16 KT):0
Visibility: 4 mile(s):0
Sky conditions: mostly cloudy
Weather: light rain showers; Cumulonimbus clouds observed
Temperature: 48 F (9 C)
Dew Point: 48 F (9 C)
Relative Humidity: 100%
Pressure (altimeter): 29.53 in. Hg (1000 hPa)
ob: UKBB 240700Z 21008MPS 7000 -SHRA SCT007 BKN012CB 09/09 Q1000 R88/290050 TEMPO 22010G16MPS
cycle: 7

Station Type Date Time Source
UKBB TAF 2021/09/24 06:15 UTC NOAA

TAF TAF UKBB 240501Z 2406/2506 20007G12MPS 4000 -RA OVC007
TEMPO 2406/2409 22010G16MPS 1600 SHRA BKN003 BKN016CB
FM240900 25007G14MPS 6000 -RA OVC010
TEMPO 2409/2418 28010G17MPS 1600 TSRA BKN004 BKN020CB
BECMG 2418/2420 28006G12MPS 9999 NSW BKN010
TEMPO 2420/2506 3000 -SHRA SCT020CB

Example: see airport list